createdAt,value
2018-06-28T00:00:46.349Z,0.00
2018-06-28T00:01:46.269Z,0.00
2018-06-28T00:02:46.212Z,0.00
2018-06-28T00:03:46.121Z,0.00
2018-06-28T00:04:46.044Z,0.00
2018-06-28T00:05:45.962Z,0.00
2018-06-28T00:06:45.892Z,0.00
2018-06-28T00:07:45.810Z,0.00
2018-06-28T00:08:45.800Z,0.00
2018-06-28T00:09:45.657Z,0.00
2018-06-28T00:10:45.595Z,0.00
2018-06-28T00:11:45.509Z,0.00
2018-06-28T00:12:45.444Z,0.00
2018-06-28T00:13:45.361Z,0.00
2018-06-28T00:14:45.289Z,0.00
2018-06-28T00:15:45.205Z,0.00
2018-06-28T00:16:45.142Z,0.00
2018-06-28T00:17:45.060Z,0.00
2018-06-28T00:18:44.987Z,0.00
2018-06-28T00:19:44.900Z,0.00
2018-06-28T00:20:44.840Z,0.00
2018-06-28T00:21:44.752Z,0.00
2018-06-28T00:22:44.685Z,0.00
2018-06-28T00:23:44.601Z,0.00
2018-06-28T00:24:44.530Z,0.00
2018-06-28T00:25:44.448Z,0.00
2018-06-28T00:26:44.382Z,0.00
2018-06-28T00:27:44.291Z,0.00
2018-06-28T00:28:44.231Z,0.00
2018-06-28T00:29:44.199Z,0.00
2018-06-28T00:30:44.082Z,0.00
2018-06-28T00:31:43.996Z,0.00
2018-06-28T00:32:43.927Z,0.00
2018-06-28T00:33:43.841Z,0.00
2018-06-28T00:34:43.775Z,0.00
2018-06-28T00:35:43.691Z,0.00
2018-06-28T00:36:43.627Z,0.00
2018-06-28T00:37:43.543Z,0.00
2018-06-28T00:38:43.477Z,0.00
2018-06-28T00:39:43.388Z,0.00
2018-06-28T00:40:43.320Z,0.00
2018-06-28T00:41:43.260Z,0.00
2018-06-28T00:42:43.173Z,0.00
2018-06-28T00:43:43.100Z,0.00
2018-06-28T00:44:43.019Z,0.00
2018-06-28T00:45:42.934Z,0.00
2018-06-28T00:46:42.866Z,0.00
2018-06-28T00:47:42.783Z,0.00
2018-06-28T00:48:42.716Z,0.00
2018-06-28T00:49:42.631Z,0.00
2018-06-28T00:50:42.569Z,0.00
2018-06-28T00:51:42.478Z,0.00
2018-06-28T00:52:42.411Z,0.00
2018-06-28T00:53:42.332Z,0.00
2018-06-28T00:54:42.264Z,0.00
2018-06-28T00:55:42.179Z,0.00
2018-06-28T00:56:42.112Z,0.00
2018-06-28T00:57:42.026Z,0.00
2018-06-28T00:58:41.956Z,0.00
2018-06-28T00:59:41.876Z,0.00
2018-06-28T01:00:41.810Z,0.00
2018-06-28T01:01:41.722Z,0.00
2018-06-28T01:02:41.657Z,0.00
2018-06-28T01:03:42.308Z,0.00
2018-06-28T01:04:41.500Z,0.00
2018-06-28T01:05:41.418Z,0.00
2018-06-28T01:06:41.358Z,0.00
2018-06-28T01:07:41.270Z,0.00
2018-06-28T01:08:41.199Z,0.00
2018-06-28T01:09:41.119Z,0.00
2018-06-28T01:10:41.054Z,0.00
2018-06-28T01:11:40.965Z,0.00
2018-06-28T01:12:40.900Z,0.00
2018-06-28T01:13:40.813Z,0.00
2018-06-28T01:14:40.750Z,0.00
2018-06-28T01:15:40.664Z,0.00
2018-06-28T01:16:40.593Z,0.00
2018-06-28T01:17:40.510Z,0.00
2018-06-28T01:18:40.447Z,0.00
2018-06-28T01:19:40.358Z,0.00
2018-06-28T01:20:40.300Z,0.00
2018-06-28T01:21:40.206Z,0.00
2018-06-28T01:22:40.139Z,0.00
2018-06-28T01:23:40.113Z,0.00
2018-06-28T01:24:39.990Z,0.00
2018-06-28T01:25:39.908Z,0.00
2018-06-28T01:26:39.842Z,0.00
2018-06-28T01:27:39.760Z,0.00
2018-06-28T01:28:39.686Z,0.00
2018-06-28T01:29:39.614Z,0.00
2018-06-28T01:30:39.539Z,0.00
2018-06-28T01:31:39.452Z,0.00
2018-06-28T01:32:39.392Z,0.00
2018-06-28T01:33:39.298Z,0.00
2018-06-28T01:34:39.236Z,0.00
2018-06-28T01:35:39.152Z,0.00
2018-06-28T01:36:39.081Z,0.00
2018-06-28T01:37:38.996Z,0.00
2018-06-28T01:38:38.930Z,0.00
2018-06-28T01:39:38.848Z,0.00
2018-06-28T01:40:38.780Z,0.00
2018-06-28T01:41:38.694Z,0.00
2018-06-28T01:42:38.622Z,0.00
2018-06-28T01:43:38.541Z,0.00
2018-06-28T01:44:38.481Z,0.00
2018-06-28T01:45:38.398Z,0.00
2018-06-28T01:46:38.326Z,0.00
2018-06-28T01:47:38.241Z,0.00
2018-06-28T01:48:38.171Z,0.00
2018-06-28T01:49:38.091Z,0.00
2018-06-28T01:50:38.022Z,0.00
2018-06-28T01:51:37.941Z,0.00
2018-06-28T01:52:37.869Z,0.00
2018-06-28T01:53:37.788Z,0.00
2018-06-28T01:54:37.720Z,0.00
2018-06-28T01:55:37.632Z,0.00
2018-06-28T01:56:37.568Z,0.00
2018-06-28T01:57:37.481Z,0.00
2018-06-28T01:58:37.414Z,0.00
2018-06-28T01:59:37.333Z,0.00
2018-06-28T02:00:37.264Z,0.00
2018-06-28T02:01:37.186Z,0.00
2018-06-28T02:02:37.114Z,0.00
2018-06-28T02:03:37.034Z,0.00
2018-06-28T02:04:36.957Z,0.00
2018-06-28T02:05:36.879Z,0.00
2018-06-28T02:06:36.816Z,0.00
2018-06-28T02:07:36.735Z,0.00
2018-06-28T02:08:36.654Z,0.00
2018-06-28T02:09:36.577Z,0.00
2018-06-28T02:10:36.509Z,0.00
2018-06-28T02:11:36.428Z,0.00
2018-06-28T02:12:36.359Z,0.00
2018-06-28T02:13:36.277Z,0.00
2018-06-28T02:14:36.207Z,0.00
2018-06-28T02:15:36.119Z,0.00
2018-06-28T02:16:36.057Z,0.00
2018-06-28T02:17:35.968Z,0.00
2018-06-28T02:18:35.902Z,0.00
2018-06-28T02:19:35.815Z,0.00
2018-06-28T02:20:35.756Z,0.00
2018-06-28T02:21:35.664Z,0.00
2018-06-28T02:22:35.599Z,0.00
2018-06-28T02:23:35.517Z,0.00
2018-06-28T02:24:35.445Z,0.00
2018-06-28T02:25:35.362Z,0.00
2018-06-28T02:26:35.306Z,0.00
2018-06-28T02:27:35.214Z,0.00
2018-06-28T02:28:35.145Z,0.00
2018-06-28T02:29:35.055Z,0.00
2018-06-28T02:30:34.992Z,0.00
2018-06-28T02:31:34.912Z,0.00
2018-06-28T02:32:34.838Z,0.00
2018-06-28T02:33:34.752Z,0.00
2018-06-28T02:34:34.686Z,0.00
2018-06-28T02:35:34.606Z,0.00
2018-06-28T02:36:34.536Z,0.00
2018-06-28T02:37:34.462Z,0.00
2018-06-28T02:38:34.390Z,0.00
2018-06-28T02:39:34.306Z,0.00
2018-06-28T02:40:34.231Z,0.00
2018-06-28T02:41:34.202Z,0.00
2018-06-28T02:42:34.083Z,0.00
2018-06-28T02:43:33.995Z,0.00
2018-06-28T02:44:33.925Z,0.00
2018-06-28T02:45:33.850Z,0.00
2018-06-28T02:46:33.787Z,0.00
2018-06-28T02:47:33.693Z,0.00
2018-06-28T02:48:33.628Z,0.00
2018-06-28T02:49:33.547Z,0.00
2018-06-28T02:50:33.474Z,0.00
2018-06-28T02:51:33.394Z,0.00
2018-06-28T02:52:33.325Z,4.00
2018-06-28T02:53:33.237Z,4.00
2018-06-28T02:54:33.170Z,0.00
2018-06-28T02:55:33.085Z,0.00
2018-06-28T02:56:33.020Z,0.00
2018-06-28T02:57:32.942Z,4.00
2018-06-28T02:58:32.863Z,4.00
2018-06-28T02:59:32.792Z,0.00
2018-06-28T03:00:32.716Z,0.00
2018-06-28T03:01:32.635Z,4.00
2018-06-28T03:02:32.563Z,4.00
2018-06-28T03:03:32.475Z,0.00
2018-06-28T03:04:32.413Z,4.00
2018-06-28T03:05:32.338Z,4.00
2018-06-28T03:06:32.257Z,8.00
2018-06-28T03:07:32.194Z,4.00
2018-06-28T03:08:32.108Z,4.00
2018-06-28T03:09:32.029Z,8.00
2018-06-28T03:10:31.957Z,4.00
2018-06-28T03:11:31.877Z,8.00
2018-06-28T03:12:31.815Z,8.00
2018-06-28T03:13:31.724Z,8.00
2018-06-28T03:14:31.655Z,8.00
2018-06-28T03:15:31.572Z,8.00
2018-06-28T03:16:31.497Z,8.00
2018-06-28T03:17:31.418Z,8.00
2018-06-28T03:18:31.355Z,12.00
2018-06-28T03:19:31.265Z,8.00
2018-06-28T03:20:31.197Z,12.00
2018-06-28T03:21:31.111Z,12.00
2018-06-28T03:22:31.053Z,12.00
2018-06-28T03:23:30.961Z,12.00
2018-06-28T03:24:30.899Z,16.00
2018-06-28T03:25:30.812Z,16.00
2018-06-28T03:26:30.764Z,16.00
2018-06-28T03:27:30.660Z,16.00
2018-06-28T03:28:30.677Z,16.00
2018-06-28T03:29:30.507Z,20.00
2018-06-28T03:30:30.486Z,20.00
2018-06-28T03:31:30.357Z,20.00
2018-06-28T03:32:30.399Z,24.00
2018-06-28T03:33:30.201Z,24.00
2018-06-28T03:34:30.213Z,28.00
2018-06-28T03:35:30.054Z,24.00
2018-06-28T03:36:30.023Z,28.00
2018-06-28T03:37:29.900Z,28.00
2018-06-28T03:38:29.830Z,32.00
2018-06-28T03:39:29.744Z,36.00
2018-06-28T03:40:29.672Z,32.00
2018-06-28T03:41:29.598Z,36.00
2018-06-28T03:42:29.541Z,36.00
2018-06-28T03:43:29.443Z,36.00
2018-06-28T03:44:29.382Z,36.00
2018-06-28T03:45:29.293Z,40.00
2018-06-28T03:46:29.260Z,40.00
2018-06-28T03:47:29.137Z,40.00
2018-06-28T03:48:29.071Z,44.00
2018-06-28T03:49:28.989Z,44.00
2018-06-28T03:50:28.916Z,48.00
2018-06-28T03:51:28.838Z,48.00
2018-06-28T03:52:28.762Z,48.00
2018-06-28T03:53:28.685Z,52.00
2018-06-28T03:54:28.631Z,52.00
2018-06-28T03:55:28.529Z,56.00
2018-06-28T03:56:28.506Z,56.00
2018-06-28T03:57:28.387Z,60.00
2018-06-28T03:58:28.433Z,64.00
2018-06-28T03:59:28.235Z,64.00
2018-06-28T04:00:28.236Z,68.00
2018-06-28T04:01:28.079Z,72.00
2018-06-28T04:02:28.050Z,72.00
2018-06-28T04:03:27.930Z,76.00
2018-06-28T04:04:27.947Z,76.00
2018-06-28T04:05:27.785Z,80.00
2018-06-28T04:06:27.797Z,80.00
2018-06-28T04:07:27.619Z,84.00
2018-06-28T04:08:27.573Z,88.00
2018-06-28T04:09:27.479Z,92.00
2018-06-28T04:10:27.478Z,92.00
2018-06-28T04:11:27.325Z,96.00
2018-06-28T04:12:27.281Z,96.00
2018-06-28T04:13:27.175Z,100.00
2018-06-28T04:14:27.193Z,108.00
2018-06-28T04:15:27.011Z,112.00
2018-06-28T04:16:27.013Z,116.00
2018-06-28T04:17:26.857Z,120.00
2018-06-28T04:18:26.812Z,128.00
2018-06-28T04:19:26.715Z,136.00
2018-06-28T04:20:26.730Z,140.00
2018-06-28T04:21:26.556Z,144.00
2018-06-28T04:22:26.531Z,148.00
2018-06-28T04:23:26.417Z,152.00
2018-06-28T04:24:26.447Z,152.00
2018-06-28T04:25:26.257Z,156.00
2018-06-28T04:26:26.259Z,156.00
2018-06-28T04:27:26.116Z,156.00
2018-06-28T04:28:26.063Z,156.00
2018-06-28T04:29:25.953Z,156.00
2018-06-28T04:30:25.883Z,156.00
2018-06-28T04:31:25.798Z,156.00
2018-06-28T04:32:25.745Z,156.00
2018-06-28T04:33:25.651Z,156.00
2018-06-28T04:34:25.575Z,160.00
2018-06-28T04:35:25.492Z,168.00
2018-06-28T04:36:25.425Z,172.00
2018-06-28T04:37:25.343Z,180.00
2018-06-28T04:38:25.381Z,188.00
2018-06-28T04:39:25.193Z,200.00
2018-06-28T04:40:25.287Z,204.00
2018-06-28T04:41:25.039Z,208.00
2018-06-28T04:42:24.998Z,212.00
2018-06-28T04:43:24.889Z,216.00
2018-06-28T04:44:24.913Z,220.00
2018-06-28T04:45:24.756Z,224.00
2018-06-28T04:46:24.717Z,224.00
2018-06-28T04:47:24.589Z,228.00
2018-06-28T04:48:24.630Z,228.00
2018-06-28T04:49:24.433Z,232.00
2018-06-28T04:50:24.438Z,232.00
2018-06-28T04:51:24.282Z,228.00
2018-06-28T04:52:24.244Z,224.00
2018-06-28T04:53:24.128Z,224.00
2018-06-28T04:54:24.158Z,220.00
2018-06-28T04:55:23.989Z,216.00
2018-06-28T04:56:23.973Z,216.00
2018-06-28T04:57:23.826Z,216.00
2018-06-28T04:58:23.789Z,208.00
2018-06-28T04:59:23.677Z,204.00
2018-06-28T05:00:23.687Z,204.00
2018-06-28T05:01:23.591Z,208.00
2018-06-28T05:02:23.501Z,208.00
2018-06-28T05:03:23.381Z,212.00
2018-06-28T05:04:23.405Z,216.00
2018-06-28T05:05:23.234Z,216.00
2018-06-28T05:06:23.216Z,216.00
2018-06-28T05:07:23.072Z,220.00
2018-06-28T05:08:23.023Z,220.00
2018-06-28T05:09:22.931Z,220.00
2018-06-28T05:10:22.936Z,220.00
2018-06-28T05:11:22.767Z,216.00
2018-06-28T05:12:22.701Z,220.00
2018-06-28T05:13:22.618Z,220.00
2018-06-28T05:14:22.660Z,216.00
2018-06-28T05:15:22.467Z,220.00
2018-06-28T05:16:22.470Z,224.00
2018-06-28T05:17:22.330Z,224.00
2018-06-28T05:18:22.287Z,240.00
2018-06-28T05:19:22.170Z,236.00
2018-06-28T05:20:22.189Z,240.00
2018-06-28T05:21:22.016Z,252.00
2018-06-28T05:22:22.002Z,248.00
2018-06-28T05:23:21.914Z,252.00
2018-06-28T05:24:21.824Z,256.00
2018-06-28T05:25:21.710Z,260.00
2018-06-28T05:26:21.723Z,264.00
2018-06-28T05:27:21.560Z,264.00
2018-06-28T05:28:21.540Z,268.00
2018-06-28T05:29:21.421Z,268.00
2018-06-28T05:30:21.439Z,276.00
2018-06-28T05:31:21.269Z,288.00
2018-06-28T05:32:21.253Z,300.00
2018-06-28T05:33:21.113Z,320.00
2018-06-28T05:34:21.039Z,340.00
2018-06-28T05:35:21.062Z,368.00
2018-06-28T05:36:20.887Z,400.00
2018-06-28T05:37:20.884Z,428.00
2018-06-28T05:38:20.742Z,492.00
2018-06-28T05:39:20.680Z,548.00
2018-06-28T05:40:20.585Z,596.00
2018-06-28T05:41:20.594Z,632.00
2018-06-28T05:42:20.438Z,660.00
2018-06-28T05:43:20.407Z,672.00
2018-06-28T05:44:20.287Z,676.00
2018-06-28T05:45:20.320Z,676.00
2018-06-28T05:46:20.136Z,672.00
2018-06-28T05:47:20.123Z,672.00
2018-06-28T05:48:19.989Z,664.00
2018-06-28T05:49:19.931Z,664.00
2018-06-28T05:50:19.837Z,656.00
2018-06-28T05:51:19.854Z,636.00
2018-06-28T05:52:19.686Z,632.00
2018-06-28T05:53:19.652Z,648.00
2018-06-28T05:54:19.538Z,656.00
2018-06-28T05:55:19.574Z,664.00
2018-06-28T05:56:19.381Z,672.00
2018-06-28T05:57:19.374Z,680.00
2018-06-28T05:58:19.238Z,708.00
2018-06-28T05:59:19.181Z,748.00
2018-06-28T06:00:19.091Z,772.00
2018-06-28T06:01:19.110Z,764.00
2018-06-28T06:02:18.937Z,756.00
2018-06-28T06:03:18.905Z,752.00
2018-06-28T06:04:18.785Z,752.00
2018-06-28T06:05:18.824Z,752.00
2018-06-28T06:06:18.634Z,752.00
2018-06-28T06:07:18.633Z,748.00
2018-06-28T06:08:18.485Z,748.00
2018-06-28T06:09:18.433Z,740.00
2018-06-28T06:10:18.382Z,748.00
2018-06-28T06:11:18.344Z,740.00
2018-06-28T06:12:18.196Z,736.00
2018-06-28T06:13:18.152Z,708.00
2018-06-28T06:14:18.044Z,692.00
2018-06-28T06:15:18.099Z,684.00
2018-06-28T06:16:17.888Z,676.00
2018-06-28T06:17:17.879Z,656.00
2018-06-28T06:18:17.744Z,652.00
2018-06-28T06:19:17.801Z,640.00
2018-06-28T06:20:17.630Z,628.00
2018-06-28T06:21:17.596Z,640.00
2018-06-28T06:22:17.455Z,644.00
2018-06-28T06:23:17.405Z,656.00
2018-06-28T06:24:17.296Z,660.00
2018-06-28T06:25:17.323Z,680.00
2018-06-28T06:26:17.149Z,692.00
2018-06-28T06:27:17.131Z,680.00
2018-06-28T06:28:17.003Z,684.00
2018-06-28T06:29:17.035Z,676.00
2018-06-28T06:30:16.854Z,692.00
2018-06-28T06:31:16.847Z,716.00
2018-06-28T06:32:16.712Z,572.00
2018-06-28T06:33:16.657Z,784.00
2018-06-28T06:34:16.571Z,832.00
2018-06-28T06:35:16.489Z,872.00
2018-06-28T06:36:16.407Z,904.00
2018-06-28T06:37:17.404Z,912.00
2018-06-28T06:38:16.274Z,792.00
2018-06-28T06:39:17.209Z,656.00
2018-06-28T06:40:16.134Z,896.00
2018-06-28T06:41:17.120Z,928.00
2018-06-28T06:42:15.964Z,948.00
2018-06-28T06:43:17.959Z,1012.00
2018-06-28T06:44:15.822Z,1000.00
2018-06-28T06:45:15.814Z,968.00
2018-06-28T06:46:15.673Z,956.00
2018-06-28T06:47:15.627Z,952.00
2018-06-28T06:48:15.523Z,980.00
2018-06-28T06:49:15.539Z,988.00
2018-06-28T06:50:15.390Z,880.00
2018-06-28T06:51:15.346Z,948.00
2018-06-28T06:52:15.238Z,848.00
2018-06-28T06:53:15.261Z,888.00
2018-06-28T06:54:15.088Z,852.00
2018-06-28T06:55:15.062Z,820.00
2018-06-28T06:56:15.063Z,804.00
2018-06-28T06:57:14.981Z,856.00
2018-06-28T06:58:14.795Z,776.00
2018-06-28T06:59:14.785Z,788.00
2018-06-28T07:00:14.656Z,744.00
2018-06-28T07:01:14.597Z,776.00
2018-06-28T07:02:14.497Z,808.00
2018-06-28T07:03:14.501Z,784.00
2018-06-28T07:04:14.352Z,736.00
2018-06-28T07:05:14.315Z,764.00
2018-06-28T07:06:14.205Z,784.00
2018-06-28T07:07:14.220Z,836.00
2018-06-28T07:08:14.058Z,760.00
2018-06-28T07:09:14.028Z,764.00
2018-06-28T07:10:14.003Z,744.00
2018-06-28T07:11:13.937Z,736.00
2018-06-28T07:12:13.770Z,736.00
2018-06-28T07:13:13.748Z,744.00
2018-06-28T07:14:13.622Z,740.00
2018-06-28T07:15:13.658Z,744.00
2018-06-28T07:16:13.477Z,736.00
2018-06-28T07:17:13.474Z,712.00
2018-06-28T07:18:13.334Z,668.00
2018-06-28T07:19:13.279Z,636.00
2018-06-28T07:20:13.196Z,608.00
2018-06-28T07:21:13.184Z,608.00
2018-06-28T07:22:13.042Z,608.00
2018-06-28T07:23:12.991Z,616.00
2018-06-28T07:24:12.894Z,620.00
2018-06-28T07:25:12.909Z,632.00
2018-06-28T07:26:12.758Z,640.00
2018-06-28T07:27:12.714Z,632.00
2018-06-28T07:28:12.613Z,620.00
2018-06-28T07:29:12.633Z,628.00
2018-06-28T07:30:12.470Z,640.00
2018-06-28T07:31:12.444Z,664.00
2018-06-28T07:32:12.317Z,676.00
2018-06-28T07:33:12.407Z,680.00
2018-06-28T07:34:12.228Z,684.00
2018-06-28T07:35:12.165Z,704.00
2018-06-28T07:36:12.028Z,716.00
2018-06-28T07:37:12.075Z,700.00
2018-06-28T07:38:11.883Z,696.00
2018-06-28T07:39:11.876Z,696.00
2018-06-28T07:40:11.736Z,708.00
2018-06-28T07:41:11.785Z,708.00
2018-06-28T07:42:11.595Z,724.00
2018-06-28T07:43:11.597Z,736.00
2018-06-28T07:44:11.454Z,756.00
2018-06-28T07:45:11.408Z,776.00
2018-06-28T07:46:11.317Z,788.00
2018-06-28T07:47:11.321Z,784.00
2018-06-28T07:48:11.162Z,772.00
2018-06-28T07:49:11.155Z,744.00
2018-06-28T07:50:11.020Z,716.00
2018-06-28T07:51:11.035Z,700.00
2018-06-28T07:52:10.873Z,704.00
2018-06-28T07:53:10.837Z,688.00
2018-06-28T07:54:10.733Z,660.00
2018-06-28T07:55:10.752Z,632.00
2018-06-28T07:56:10.595Z,608.00
2018-06-28T07:57:10.567Z,608.00
2018-06-28T07:58:10.452Z,628.00
2018-06-28T07:59:10.470Z,648.00
2018-06-28T08:00:10.308Z,656.00
2018-06-28T08:01:10.283Z,664.00
2018-06-28T08:02:10.167Z,652.00
2018-06-28T08:03:10.192Z,624.00
2018-06-28T08:04:10.015Z,592.00
2018-06-28T08:05:10.019Z,584.00
2018-06-28T08:06:09.872Z,604.00
2018-06-28T08:07:09.915Z,644.00
2018-06-28T08:08:09.735Z,680.00
2018-06-28T08:09:09.738Z,700.00
2018-06-28T08:10:09.588Z,712.00
2018-06-28T08:11:09.537Z,724.00
2018-06-28T08:12:09.451Z,744.00
2018-06-28T08:13:09.438Z,788.00
2018-06-28T08:14:09.298Z,792.00
2018-06-28T08:15:09.263Z,872.00
2018-06-28T08:16:09.158Z,880.00
2018-06-28T08:17:09.157Z,844.00
2018-06-28T08:18:09.012Z,836.00
2018-06-28T08:19:08.978Z,912.00
2018-06-28T08:20:08.870Z,948.00
2018-06-28T08:21:08.877Z,928.00
2018-06-28T08:22:08.736Z,956.00
2018-06-28T08:23:08.687Z,1016.00
2018-06-28T08:24:08.578Z,992.00
2018-06-28T08:25:08.615Z,996.00
2018-06-28T08:26:08.434Z,1000.00
2018-06-28T08:27:08.410Z,1000.00
2018-06-28T08:28:08.321Z,964.00
2018-06-28T08:29:08.317Z,904.00
2018-06-28T08:30:08.153Z,844.00
2018-06-28T08:31:08.137Z,784.00
2018-06-28T08:32:08.011Z,736.00
2018-06-28T08:33:08.049Z,696.00
2018-06-28T08:34:07.869Z,668.00
2018-06-28T08:35:07.843Z,648.00
2018-06-28T08:36:07.732Z,632.00
2018-06-28T08:37:07.766Z,628.00
2018-06-28T08:38:07.585Z,628.00
2018-06-28T08:39:07.570Z,616.00
2018-06-28T08:40:07.444Z,608.00
2018-06-28T08:41:07.476Z,608.00
2018-06-28T08:42:07.302Z,624.00
2018-06-28T08:43:07.280Z,640.00
2018-06-28T08:44:07.153Z,656.00
2018-06-28T08:45:07.200Z,660.00
2018-06-28T08:46:07.015Z,660.00
2018-06-28T08:47:07.009Z,656.00
2018-06-28T08:48:06.866Z,648.00
2018-06-28T08:49:06.965Z,644.00
2018-06-28T08:50:06.735Z,636.00
2018-06-28T08:51:06.735Z,628.00
2018-06-28T08:52:06.594Z,616.00
2018-06-28T08:53:06.635Z,604.00
2018-06-28T08:54:06.449Z,588.00
2018-06-28T08:55:06.453Z,568.00
2018-06-28T08:56:06.321Z,548.00
2018-06-28T08:57:06.256Z,528.00
2018-06-28T08:58:06.296Z,512.00
2018-06-28T08:59:06.169Z,504.00
2018-06-28T09:00:06.019Z,516.00
2018-06-28T09:01:05.973Z,532.00
2018-06-28T09:02:05.889Z,560.00
2018-06-28T09:03:05.878Z,592.00
2018-06-28T09:04:05.740Z,624.00
2018-06-28T09:05:05.699Z,656.00
2018-06-28T09:06:05.593Z,676.00
2018-06-28T09:07:05.603Z,692.00
2018-06-28T09:08:05.464Z,700.00
2018-06-28T09:09:05.414Z,700.00
2018-06-28T09:10:05.315Z,700.00
2018-06-28T09:11:05.323Z,696.00
2018-06-28T09:12:05.173Z,704.00
2018-06-28T09:13:05.133Z,724.00
2018-06-28T09:14:05.028Z,748.00
2018-06-28T09:15:05.052Z,768.00
2018-06-28T09:16:04.885Z,796.00
2018-06-28T09:17:04.859Z,828.00
2018-06-28T09:18:04.755Z,868.00
2018-06-28T09:19:04.763Z,904.00
2018-06-28T09:20:04.609Z,932.00
2018-06-28T09:21:04.571Z,840.00
2018-06-28T09:22:04.463Z,696.00
2018-06-28T09:23:04.524Z,584.00
2018-06-28T09:24:04.324Z,500.00
2018-06-28T09:25:04.298Z,440.00
2018-06-28T09:26:04.178Z,400.00
2018-06-28T09:27:04.208Z,376.00
2018-06-28T09:28:04.046Z,356.00
2018-06-28T09:29:04.015Z,336.00
2018-06-28T09:30:03.908Z,316.00
2018-06-28T09:31:03.921Z,300.00
2018-06-28T09:32:03.752Z,288.00
2018-06-28T09:33:03.729Z,276.00
2018-06-28T09:34:03.614Z,264.00
2018-06-28T09:35:03.652Z,256.00
2018-06-28T09:36:03.478Z,240.00
2018-06-28T09:37:03.448Z,220.00
2018-06-28T09:38:03.331Z,208.00
2018-06-28T09:39:03.364Z,204.00
2018-06-28T09:40:03.198Z,200.00
2018-06-28T09:41:03.167Z,204.00
2018-06-28T09:42:03.049Z,200.00
2018-06-28T09:43:03.086Z,196.00
2018-06-28T09:44:02.911Z,200.00
2018-06-28T09:45:02.888Z,208.00
2018-06-28T09:46:02.773Z,224.00
2018-06-28T09:47:02.798Z,232.00
2018-06-28T09:48:02.630Z,244.00
2018-06-28T09:49:02.610Z,260.00
2018-06-28T09:50:02.497Z,284.00
2018-06-28T09:51:02.521Z,308.00
2018-06-28T09:52:02.343Z,320.00
2018-06-28T09:53:02.327Z,324.00
2018-06-28T09:54:02.204Z,316.00
2018-06-28T09:55:02.235Z,316.00
2018-06-28T09:56:02.076Z,304.00
2018-06-28T09:57:02.050Z,292.00
2018-06-28T09:58:01.918Z,280.00
2018-06-28T09:59:01.965Z,268.00
2018-06-28T10:00:01.836Z,256.00
2018-06-28T10:01:01.771Z,248.00
2018-06-28T10:02:01.635Z,240.00
2018-06-28T10:03:01.679Z,236.00
2018-06-28T10:04:01.494Z,232.00
2018-06-28T10:05:01.488Z,236.00
2018-06-28T10:06:01.360Z,256.00
2018-06-28T10:07:01.399Z,304.00
2018-06-28T10:08:01.211Z,348.00
2018-06-28T10:09:01.206Z,384.00
2018-06-28T10:10:01.066Z,400.00
2018-06-28T10:11:01.016Z,400.00
2018-06-28T10:12:00.935Z,396.00
2018-06-28T10:13:00.933Z,388.00
2018-06-28T10:14:00.789Z,380.00
2018-06-28T10:15:00.737Z,384.00
2018-06-28T10:16:00.642Z,388.00
2018-06-28T10:17:00.642Z,400.00
2018-06-28T10:18:00.562Z,416.00
2018-06-28T10:19:00.470Z,432.00
2018-06-28T10:20:00.358Z,448.00
2018-06-28T10:21:00.365Z,468.00
2018-06-28T10:22:00.216Z,484.00
2018-06-28T10:23:00.168Z,496.00
2018-06-28T10:24:00.077Z,504.00
2018-06-28T10:25:00.146Z,504.00
2018-06-28T10:25:59.933Z,500.00
2018-06-28T10:26:59.892Z,492.00
2018-06-28T10:27:59.790Z,472.00
2018-06-28T10:28:59.814Z,448.00
2018-06-28T10:29:59.648Z,432.00
2018-06-28T10:30:59.615Z,436.00
2018-06-28T10:31:59.516Z,456.00
2018-06-28T10:32:59.526Z,488.00
2018-06-28T10:33:59.362Z,524.00
2018-06-28T10:34:59.331Z,568.00
2018-06-28T10:35:59.217Z,604.00
2018-06-28T10:36:59.243Z,616.00
2018-06-28T10:37:59.082Z,604.00
2018-06-28T10:38:59.057Z,580.00
2018-06-28T10:39:58.945Z,548.00
2018-06-28T10:40:58.979Z,528.00
2018-06-28T10:41:58.788Z,508.00
2018-06-28T10:42:58.771Z,472.00
2018-06-28T10:43:58.647Z,432.00
2018-06-28T10:44:58.681Z,392.00
2018-06-28T10:45:58.514Z,360.00
2018-06-28T10:46:58.487Z,332.00
2018-06-28T10:47:58.367Z,312.00
2018-06-28T10:48:58.404Z,304.00
2018-06-28T10:49:58.224Z,316.00
2018-06-28T10:50:58.216Z,324.00
2018-06-28T10:51:58.094Z,332.00
2018-06-28T10:52:58.124Z,344.00
2018-06-28T10:53:57.960Z,356.00
2018-06-28T10:54:57.933Z,356.00
2018-06-28T10:55:57.801Z,340.00
2018-06-28T10:56:57.842Z,328.00
2018-06-28T10:57:57.660Z,324.00
2018-06-28T10:58:57.651Z,340.00
2018-06-28T10:59:57.512Z,360.00
2018-06-28T11:00:57.469Z,384.00
2018-06-28T11:01:57.382Z,400.00
2018-06-28T11:02:57.373Z,424.00
2018-06-28T11:03:57.232Z,460.00
2018-06-28T11:04:57.172Z,512.00
2018-06-28T11:05:57.098Z,584.00
2018-06-28T11:06:57.094Z,668.00
2018-06-28T11:07:56.952Z,756.00
2018-06-28T11:08:56.895Z,832.00
2018-06-28T11:09:56.800Z,880.00
2018-06-28T11:10:56.806Z,888.00
2018-06-28T11:11:56.656Z,884.00
2018-06-28T11:12:56.618Z,892.00
2018-06-28T11:13:56.527Z,912.00
2018-06-28T11:14:56.534Z,924.00
2018-06-28T11:15:56.374Z,920.00
2018-06-28T11:16:56.338Z,924.00
2018-06-28T11:17:56.240Z,920.00
2018-06-28T11:18:56.244Z,912.00
2018-06-28T11:19:56.093Z,904.00
2018-06-28T11:20:56.064Z,864.00
2018-06-28T11:21:55.955Z,852.00
2018-06-28T11:22:55.964Z,824.00
2018-06-28T11:23:55.810Z,792.00
2018-06-28T11:24:55.787Z,744.00
2018-06-28T11:25:55.670Z,764.00
2018-06-28T11:26:55.687Z,744.00
2018-06-28T11:27:55.534Z,716.00
2018-06-28T11:28:55.498Z,692.00
2018-06-28T11:29:55.400Z,672.00
2018-06-28T11:30:55.318Z,680.00
2018-06-28T11:31:55.398Z,716.00
2018-06-28T11:32:55.174Z,760.00
2018-06-28T11:33:55.287Z,796.00
2018-06-28T11:34:55.035Z,828.00
2018-06-28T11:35:55.029Z,852.00
2018-06-28T11:36:54.896Z,852.00
2018-06-28T11:37:54.962Z,824.00
2018-06-28T11:38:54.754Z,800.00
2018-06-28T11:39:54.751Z,760.00
2018-06-28T11:40:54.616Z,684.00
2018-06-28T11:41:54.666Z,576.00
2018-06-28T11:42:54.480Z,496.00
2018-06-28T11:43:54.465Z,460.00
2018-06-28T11:44:54.338Z,456.00
2018-06-28T11:45:54.377Z,492.00
2018-06-28T11:46:54.192Z,552.00
2018-06-28T11:47:54.188Z,616.00
2018-06-28T11:48:54.051Z,640.00
2018-06-28T11:49:54.099Z,624.00
2018-06-28T11:50:53.914Z,580.00
2018-06-28T11:51:53.909Z,548.00
2018-06-28T11:52:53.769Z,524.00
2018-06-28T11:53:53.819Z,512.00
2018-06-28T11:54:53.629Z,544.00
2018-06-28T11:55:53.627Z,612.00
2018-06-28T11:56:53.497Z,696.00
2018-06-28T11:57:53.438Z,708.00
2018-06-28T11:58:53.349Z,672.00
2018-06-28T11:59:53.345Z,660.00
2018-06-28T12:00:53.213Z,696.00
2018-06-28T12:01:53.254Z,724.00
2018-06-28T12:02:53.068Z,776.00
2018-06-28T12:03:53.074Z,772.00
2018-06-28T12:04:52.932Z,744.00
2018-06-28T12:05:52.985Z,708.00
2018-06-28T12:06:52.795Z,700.00
2018-06-28T12:07:52.792Z,740.00
2018-06-28T12:08:52.649Z,828.00
2018-06-28T12:09:52.697Z,1104.00
2018-06-28T12:10:52.510Z,1088.00
2018-06-28T12:11:52.516Z,896.00
2018-06-28T12:12:52.388Z,828.00
2018-06-28T12:13:52.424Z,804.00
2018-06-28T12:14:52.235Z,812.00
2018-06-28T12:15:52.227Z,844.00
2018-06-28T12:16:52.094Z,900.00
2018-06-28T12:17:52.136Z,960.00
2018-06-28T12:18:51.971Z,1004.00
2018-06-28T12:19:51.946Z,1000.00
2018-06-28T12:20:51.814Z,1012.00
2018-06-28T12:21:51.859Z,976.00
2018-06-28T12:22:51.676Z,968.00
2018-06-28T12:23:51.666Z,1084.00
2018-06-28T12:24:51.540Z,1104.00
2018-06-28T12:25:51.575Z,1192.00
2018-06-28T12:26:51.395Z,1036.00
2018-06-28T12:27:51.383Z,984.00
2018-06-28T12:28:51.256Z,928.00
2018-06-28T12:29:51.297Z,896.00
2018-06-28T12:30:51.118Z,888.00
2018-06-28T12:31:51.106Z,892.00
2018-06-28T12:32:50.974Z,880.00
2018-06-28T12:33:51.015Z,880.00
2018-06-28T12:34:51.463Z,896.00
2018-06-28T12:35:50.822Z,892.00
2018-06-28T12:36:50.701Z,900.00
2018-06-28T12:37:50.742Z,892.00
2018-06-28T12:38:50.561Z,852.00
2018-06-28T12:39:50.544Z,804.00
2018-06-28T12:40:50.428Z,772.00
2018-06-28T12:41:50.455Z,760.00